Time;durP1;ratioP1;P1;durP2;ratioP2;P2;SDS_P1;SDS_P2;PMS_P1;PMS_P2;Temp;Humidity;BMP_temperature;BMP_pressure;BME280_temperature;BME280_humidity;BME280_pressure;Samples;Min_cycle;Max_cycle;Signal;HPM_P1;HPM_P2
2021/08/12 00:02:06;;;;;;;2.20;1.92;;;23.20;99.90;;;;;;5031732;28;20084;-67
2021/08/12 00:04:32;;;;;;;2.50;1.95;;;23.20;99.90;;;;;;5032402;28;20028;-68
2021/08/12 00:06:58;;;;;;;3.00;2.30;;;23.20;99.90;;;;;;5031616;28;20022;-70
2021/08/12 00:09:24;;;;;;;2.78;2.00;;;23.20;99.90;;;;;;5032051;28;20025;-67
2021/08/12 00:11:50;;;;;;;3.42;2.03;;;23.20;99.90;;;;;;5031971;28;20128;-69
2021/08/12 00:14:16;;;;;;;2.97;1.95;;;23.20;99.90;;;;;;5027023;28;20057;-69
2021/08/12 00:16:42;;;;;;;3.95;2.60;;;23.20;99.90;;;;;;5012035;28;20057;-68
2021/08/12 00:19:11;;;;;;;2.33;2.03;;;23.20;99.90;;;;;;5011904;28;20101;-70
2021/08/12 00:21:38;;;;;;;2.38;2.00;;;23.20;99.90;;;;;;5012139;28;20037;-66
2021/08/12 00:24:04;;;;;;;2.72;2.22;;;23.20;99.90;;;;;;5030539;28;20021;-69
2021/08/12 00:26:29;;;;;;;2.60;1.98;;;23.20;99.90;;;;;;5031578;28;20034;-68
2021/08/12 00:28:55;;;;;;;2.72;1.85;;;23.20;99.90;;;;;;5031039;28;20026;-69
2021/08/12 00:31:21;;;;;;;4.95;2.20;;;23.20;99.90;;;;;;5031627;28;20049;-69
2021/08/12 00:33:46;;;;;;;3.20;2.13;;;23.10;99.90;;;;;;5032163;28;20105;-69
2021/08/12 00:36:12;;;;;;;2.00;1.80;;;23.10;99.90;;;;;;5013370;28;20032;-66
2021/08/12 00:38:37;;;;;;;3.80;2.15;;;23.10;99.90;;;;;;5031278;28;20033;-70
2021/08/12 00:41:03;;;;;;;2.65;1.95;;;23.10;99.90;;;;;;5030518;28;20087;-70
2021/08/12 00:43:29;;;;;;;2.97;2.25;;;23.10;99.90;;;;;;5030844;28;20495;-69
2021/08/12 00:45:54;;;;;;;3.40;2.50;;;23.10;99.90;;;;;;5019625;28;20033;-68
2021/08/12 00:48:20;;;;;;;2.80;2.20;;;23.10;99.90;;;;;;5012023;28;20030;-68
2021/08/12 00:50:46;;;;;;;3.17;2.28;;;23.10;99.90;;;;;;5011889;28;20064;-70
2021/08/12 00:53:12;;;;;;;2.85;1.95;;;23.00;99.90;;;;;;5027671;28;20037;-69
2021/08/12 00:55:43;;;;;;;2.30;2.10;;;23.00;99.90;;;;;;5031039;28;20018;-70
2021/08/12 00:58:32;;;;;;;2.50;1.98;;;23.00;99.90;;;;;;5030950;28;20531;-68
2021/08/12 01:00:58;;;;;;;2.67;1.90;;;23.00;99.90;;;;;;5030790;28;20042;-68
2021/08/12 01:03:24;;;;;;;4.38;2.33;;;23.10;99.90;;;;;;5031161;28;20026;-70
2021/08/12 01:05:52;;;;;;;2.65;2.30;;;23.00;99.90;;;;;;5031191;28;20125;-70
2021/08/12 01:08:18;;;;;;;3.05;2.30;;;23.00;99.90;;;;;;5013621;28;20022;-69
2021/08/12 01:10:51;;;;;;;6.47;2.47;;;23.00;99.90;;;;;;5031391;28;20104;-70
2021/08/12 01:13:58;;;;;;;2.67;1.85;;;23.00;99.90;;;;;;5030874;28;20025;-70
2021/08/12 01:16:29;;;;;;;2.90;1.80;;;23.00;99.90;;;;;;5024207;28;20147;-68
2021/08/12 01:19:05;;;;;;;2.83;1.90;;;23.00;99.90;;;;;;5013349;28;20025;-69
2021/08/12 01:22:05;;;;;;;1.98;1.70;;;23.00;99.90;;;;;;5031183;28;20496;-67
2021/08/12 01:24:36;;;;;;;2.60;2.10;;;23.00;99.90;;;;;;5011650;28;20045;-68
2021/08/12 01:27:06;;;;;;;3.08;2.13;;;23.00;99.90;;;;;;5030220;28;20481;-70
2021/08/12 01:29:51;;;;;;;2.63;2.00;;;22.90;99.90;;;;;;5031069;28;20040;-70
2021/08/12 01:32:25;;;;;;;2.50;2.10;;;22.90;99.90;;;;;;5031191;28;20439;-70
2021/08/12 01:34:58;;;;;;;2.33;1.65;;;23.00;99.90;;;;;;5031160;28;20060;-66
2021/08/12 01:37:26;;;;;;;2.55;2.25;;;22.90;99.90;;;;;;5034490;28;20029;-69
2021/08/12 01:39:53;;;;;;;3.28;2.10;;;22.90;99.90;;;;;;5034103;28;20033;-70
2021/08/12 01:42:20;;;;;;;2.42;2.08;;;22.90;99.90;;;;;;5034595;28;20034;-67
2021/08/12 01:44:46;;;;;;;2.85;2.45;;;22.90;99.90;;;;;;5034184;28;20022;-70
2021/08/12 01:47:13;;;;;;;2.63;2.10;;;22.90;99.90;;;;;;5016531;28;20025;-70
2021/08/12 01:49:41;;;;;;;2.10;1.85;;;22.90;99.90;;;;;;5014780;28;20058;-69
2021/08/12 01:52:08;;;;;;;2.70;2.30;;;22.90;99.90;;;;;;5018859;28;20028;-70
2021/08/12 01:54:35;;;;;;;2.30;2.03;;;22.90;99.90;;;;;;5034334;28;20531;-70
2021/08/12 01:57:02;;;;;;;3.10;2.30;;;22.90;99.90;;;;;;5034128;28;20041;-70
2021/08/12 01:59:31;;;;;;;2.22;1.95;;;22.90;99.90;;;;;;5034480;28;20018;-70
2021/08/12 02:01:57;;;;;;;2.78;2.33;;;22.80;99.90;;;;;;5034021;28;20037;-70
2021/08/12 02:04:24;;;;;;;2.50;2.10;;;22.80;99.90;;;;;;5034333;28;20108;-70
2021/08/12 02:06:51;;;;;;;3.28;2.20;;;22.90;99.90;;;;;;5034349;28;20420;-69
2021/08/12 02:09:16;;;;;;;2.97;2.30;;;22.80;99.90;;;;;;5034029;28;20040;-70
2021/08/12 02:11:43;;;;;;;4.20;2.22;;;22.80;99.90;;;;;;5034303;28;20100;-70
2021/08/12 02:14:09;;;;;;;2.25;2.03;;;22.80;99.90;;;;;;5033291;28;20057;-71
2021/08/12 02:16:35;;;;;;;2.53;2.08;;;22.90;99.90;;;;;;5034004;28;20068;-71
2021/08/12 02:19:00;;;;;;;2.45;1.92;;;22.80;99.90;;;;;;5033640;28;20036;-69
2021/08/12 02:21:37;;;;;;;3.08;1.98;;;22.80;99.90;;;;;;5034214;28;20394;-71
2021/08/12 02:24:14;;;;;;;2.85;2.15;;;22.80;99.90;;;;;;5033325;28;20056;-69
2021/08/12 02:26:50;;;;;;;2.90;2.30;;;22.80;99.90;;;;;;5033949;28;20851;-66
2021/08/12 02:29:17;;;;;;;2.35;2.10;;;22.80;99.90;;;;;;5014399;28;20029;-66
2021/08/12 02:31:45;;;;;;;2.47;2.10;;;22.80;99.90;;;;;;5013981;28;20492;-66
2021/08/12 02:34:11;;;;;;;3.58;2.28;;;22.80;99.90;;;;;;5033065;28;20452;-67
2021/08/12 02:36:38;;;;;;;3.08;2.25;;;22.80;99.90;;;;;;5033356;28;20482;-67
2021/08/12 02:39:05;;;;;;;3.63;2.15;;;22.80;99.90;;;;;;5032843;28;20099;-69
2021/08/12 02:41:32;;;;;;;3.05;2.38;;;22.80;99.90;;;;;;5032798;28;20037;-67
2021/08/12 02:43:59;;;;;;;3.38;2.40;;;22.80;99.90;;;;;;5032879;28;20036;-66
2021/08/12 02:46:26;;;;;;;3.63;2.10;;;22.80;99.90;;;;;;5029119;28;20112;-68
2021/08/12 02:48:54;;;;;;;2.88;2.05;;;22.80;99.90;;;;;;5013277;28;20030;-67
2021/08/12 02:51:20;;;;;;;2.35;2.00;;;22.70;99.90;;;;;;5027286;28;20033;-66
2021/08/12 02:53:46;;;;;;;2.67;2.15;;;22.80;99.90;;;;;;5033614;28;20037;-67
2021/08/12 02:56:13;;;;;;;3.10;2.40;;;22.70;99.90;;;;;;5032872;28;20040;-66
2021/08/12 02:58:41;;;;;;;2.63;2.08;;;22.70;99.90;;;;;;5033317;28;20049;-67
2021/08/12 03:01:07;;;;;;;2.45;1.92;;;22.80;99.90;;;;;;5032674;28;20033;-67
2021/08/12 03:03:36;;;;;;;4.57;2.22;;;22.80;99.90;;;;;;5032673;28;20471;-67
2021/08/12 03:06:05;;;;;;;3.03;2.33;;;22.70;99.90;;;;;;5032756;28;20037;-66
2021/08/12 03:08:32;;;;;;;3.45;2.05;;;22.80;99.90;;;;;;5032756;28;20037;-68
2021/08/12 03:10:58;;;;;;;2.30;2.10;;;22.80;99.90;;;;;;5014785;28;20033;-66
2021/08/12 03:13:24;;;;;;;3.42;2.30;;;22.70;99.90;;;;;;5033163;28;20056;-66
2021/08/12 03:15:50;;;;;;;2.35;2.10;;;22.70;99.90;;;;;;5032697;28;20037;-65
2021/08/12 03:18:16;;;;;;;2.28;2.08;;;22.70;99.90;;;;;;5016725;28;20072;-66
2021/08/12 03:20:42;;;;;;;3.20;2.13;;;22.70;99.90;;;;;;5013140;28;20038;-67
2021/08/12 03:23:08;;;;;;;2.78;2.00;;;22.70;99.90;;;;;;5029919;28;20117;-67
2021/08/12 03:25:34;;;;;;;2.63;2.13;;;22.70;99.90;;;;;;5032814;28;20026;-67
2021/08/12 03:28:00;;;;;;;2.60;2.33;;;22.70;99.90;;;;;;5032357;28;20021;-68
2021/08/12 03:30:26;;;;;;;3.35;2.40;;;22.70;99.90;;;;;;5032350;28;20033;-69
2021/08/12 03:32:52;;;;;;;3.00;2.00;;;22.70;99.90;;;;;;5031793;28;20026;-68
2021/08/12 03:35:18;;;;;;;3.53;2.20;;;22.70;99.90;;;;;;5032631;28;20067;-66
2021/08/12 03:37:44;;;;;;;2.35;2.00;;;22.70;99.90;;;;;;5027845;28;20018;-69
2021/08/12 03:40:11;;;;;;;3.83;2.30;;;22.70;99.90;;;;;;5012470;28;20045;-67
2021/08/12 03:42:37;;;;;;;2.97;2.22;;;22.70;99.90;;;;;;5024072;28;20018;-66
2021/08/12 03:45:04;;;;;;;2.30;2.00;;;22.70;99.90;;;;;;5031709;28;20370;-67
2021/08/12 03:47:30;;;;;;;2.60;2.15;;;22.60;99.90;;;;;;5032385;28;20492;-68
2021/08/12 03:49:56;;;;;;;3.20;2.08;;;22.60;99.90;;;;;;5031897;28;20037;-66
2021/08/12 03:52:22;;;;;;;2.88;2.10;;;22.60;99.90;;;;;;5032020;28;20026;-69
2021/08/12 03:54:47;;;;;;;2.55;1.85;;;22.60;99.90;;;;;;5032195;28;20021;-66
2021/08/12 03:57:13;;;;;;;2.75;2.17;;;22.60;99.90;;;;;;5031780;28;20439;-66
2021/08/12 03:59:38;;;;;;;3.05;2.38;;;22.60;99.90;;;;;;5031767;28;20029;-68
2021/08/12 04:02:05;;;;;;;2.08;1.85;;;22.60;99.90;;;;;;5031926;28;20466;-67
2021/08/12 04:04:30;;;;;;;3.15;1.95;;;22.60;99.90;;;;;;5032107;28;20057;-66
2021/08/12 04:06:57;;;;;;;2.72;2.13;;;22.60;99.90;;;;;;5030821;28;20040;-68
2021/08/12 04:09:22;;;;;;;2.75;2.28;;;22.60;99.90;;;;;;5031724;28;20490;-66
2021/08/12 04:11:48;;;;;;;2.65;2.40;;;22.50;99.90;;;;;;5032143;28;20061;-70
2021/08/12 04:14:14;;;;;;;2.80;2.20;;;22.50;99.90;;;;;;5031535;28;20433;-67
2021/08/12 04:16:39;;;;;;;2.42;2.00;;;22.60;99.90;;;;;;5031960;28;20423;-68
2021/08/12 04:19:05;;;;;;;2.45;2.10;;;22.50;99.90;;;;;;5031601;28;20028;-68
2021/08/12 04:21:32;;;;;;;2.67;2.25;;;22.50;99.90;;;;;;5031305;28;20034;-67
2021/08/12 04:23:57;;;;;;;2.63;2.35;;;22.50;99.90;;;;;;5013926;28;20056;-67
2021/08/12 04:26:27;;;;;;;7.13;2.30;;;22.50;99.90;;;;;;5031903;28;20049;-69
2021/08/12 04:28:56;;;;;;;2.00;1.80;;;22.50;99.90;;;;;;5031370;28;20025;-67
2021/08/12 04:31:22;;;;;;;3.03;1.90;;;22.50;99.90;;;;;;5031730;28;20022;-70
2021/08/12 04:33:48;;;;;;;3.20;2.03;;;22.50;99.90;;;;;;5031982;28;20068;-69
2021/08/12 04:36:14;;;;;;;3.30;2.25;;;22.50;99.90;;;;;;5030910;28;20037;-69
2021/08/12 04:38:40;;;;;;;2.22;2.03;;;22.50;99.90;;;;;;5031160;28;20021;-70
2021/08/12 04:41:06;;;;;;;2.80;2.10;;;22.50;99.90;;;;;;5030682;28;20532;-68
2021/08/12 04:43:32;;;;;;;5.50;2.28;;;22.50;99.90;;;;;;5031073;28;20018;-69
2021/08/12 04:45:58;;;;;;;2.50;2.10;;;22.50;99.90;;;;;;5031456;28;20033;-70
2021/08/12 04:48:23;;;;;;;2.53;2.22;;;22.50;99.90;;;;;;5030984;28;20025;-65
2021/08/12 04:50:49;;;;;;;3.00;2.25;;;22.50;99.90;;;;;;5027332;28;20057;-69
2021/08/12 04:53:15;;;;;;;2.38;2.15;;;22.50;99.90;;;;;;5011562;28;20117;-70
2021/08/12 04:55:40;;;;;;;2.70;2.30;;;22.40;99.90;;;;;;5011784;28;20100;-68
2021/08/12 04:58:06;;;;;;;2.60;2.33;;;22.40;99.90;;;;;;5011507;28;20022;-68
2021/08/12 05:00:33;;;;;;;4.03;2.22;;;22.50;99.90;;;;;;5028859;28;20037;-69
2021/08/12 05:02:59;;;;;;;3.70;2.28;;;22.40;99.90;;;;;;5031139;28;20104;-69
2021/08/12 05:05:25;;;;;;;3.08;2.45;;;22.40;99.90;;;;;;5031120;28;20435;-68
2021/08/12 05:07:50;;;;;;;3.60;2.35;;;22.50;99.90;;;;;;5031117;28;20079;-66
2021/08/12 05:10:16;;;;;;;6.22;2.78;;;22.50;99.90;;;;;;5032548;28;20474;-69
2021/08/12 05:12:42;;;;;;;9.13;2.10;;;22.50;99.90;;;;;;5035252;28;20063;-71
2021/08/12 05:15:08;;;;;;;5.50;2.50;;;22.60;99.90;;;;;;5035140;28;20470;-73
2021/08/12 05:17:33;;;;;;;5.15;2.38;;;22.50;99.90;;;;;;5017376;28;20443;-68
2021/08/12 05:19:59;;;;;;;6.30;2.30;;;22.50;99.90;;;;;;5034291;28;20116;-68
2021/08/12 05:22:25;;;;;;;4.00;2.63;;;22.50;99.90;;;;;;5022657;28;20025;-72
2021/08/12 05:24:51;;;;;;;2.97;2.35;;;22.50;99.90;;;;;;5015885;28;20034;-67
2021/08/12 05:27:18;;;;;;;7.22;2.20;;;22.50;99.90;;;;;;5015763;28;20437;-69
2021/08/12 05:29:44;;;;;;;3.97;2.42;;;22.70;99.90;;;;;;5026274;28;20025;-68
2021/08/12 05:32:09;;;;;;;2.95;2.17;;;22.80;99.90;;;;;;5034599;28;20378;-67
2021/08/12 05:34:35;;;;;;;3.50;2.40;;;22.80;99.90;;;;;;5034635;28;20180;-66
2021/08/12 05:37:01;;;;;;;2.50;2.20;;;22.70;99.90;;;;;;5034678;28;20037;-68
2021/08/12 05:39:27;;;;;;;2.22;2.00;;;22.70;99.90;;;;;;5034603;28;20466;-69
2021/08/12 05:41:53;;;;;;;2.92;2.35;;;22.70;99.90;;;;;;5034200;28;20413;-67
2021/08/12 05:44:19;;;;;;;3.22;2.47;;;22.70;99.90;;;;;;5007201;28;20018;-69
2021/08/12 05:46:45;;;;;;;2.80;2.17;;;22.70;99.90;;;;;;5023282;28;20025;-66
2021/08/12 05:49:11;;;;;;;3.40;2.72;;;22.60;99.90;;;;;;5021202;28;20042;-68
2021/08/12 05:51:38;;;;;;;4.43;2.45;;;22.60;99.90;;;;;;5023419;28;20481;-65
2021/08/12 05:54:04;;;;;;;2.88;2.30;;;22.60;99.90;;;;;;5024791;28;20025;-69
2021/08/12 05:56:30;;;;;;;3.78;2.60;;;22.60;99.90;;;;;;5024065;28;20025;-65
2021/08/12 05:58:55;;;;;;;2.83;2.40;;;22.60;99.90;;;;;;5005192;28;20037;-66
2021/08/12 06:01:21;;;;;;;2.83;2.28;;;22.60;99.90;;;;;;5024711;28;20025;-67
2021/08/12 06:03:47;;;;;;;3.50;2.50;;;22.60;99.90;;;;;;5023593;28;20018;-66
2021/08/12 06:06:14;;;;;;;2.40;2.15;;;22.70;99.90;;;;;;5025515;28;20109;-65
2021/08/12 06:08:39;;;;;;;3.70;2.63;;;22.60;99.90;;;;;;5025200;28;20549;-66
2021/08/12 06:11:05;;;;;;;3.55;2.80;;;22.60;99.90;;;;;;5022013;28;20021;-66
2021/08/12 06:13:31;;;;;;;2.67;2.20;;;22.60;99.90;;;;;;5028931;28;20060;-67
2021/08/12 06:15:58;;;;;;;3.10;2.28;;;22.60;99.90;;;;;;5033472;28;20024;-68
2021/08/12 06:18:24;;;;;;;4.03;2.45;;;22.60;99.90;;;;;;5033611;28;20063;-66
2021/08/12 06:20:50;;;;;;;3.33;2.28;;;22.60;99.90;;;;;;5033343;28;20041;-67
2021/08/12 06:23:16;;;;;;;3.40;2.65;;;22.60;99.90;;;;;;5033972;28;20036;-66
2021/08/12 06:25:41;;;;;;;3.53;2.30;;;22.60;99.90;;;;;;5029906;28;20029;-66
2021/08/12 06:28:08;;;;;;;3.05;2.38;;;22.60;99.90;;;;;;5023956;28;20092;-68
2021/08/12 06:30:34;;;;;;;3.38;2.67;;;22.60;99.90;;;;;;5022697;28;20485;-68
2021/08/12 06:33:00;;;;;;;2.85;2.20;;;22.60;99.90;;;;;;5021731;28;20382;-68
2021/08/12 06:35:32;;;;;;;2.55;2.33;;;22.60;99.90;;;;;;5022519;28;20024;-66
2021/08/12 06:37:57;;;;;;;4.00;2.55;;;22.70;99.90;;;;;;5022409;28;20040;-66
2021/08/12 06:40:24;;;;;;;3.17;2.72;;;22.60;99.90;;;;;;5021545;28;20037;-68
2021/08/12 06:42:52;;;;;;;3.40;2.55;;;22.70;99.90;;;;;;5022918;28;20482;-66
2021/08/12 06:45:19;;;;;;;3.58;2.45;;;22.60;99.90;;;;;;5021535;28;20029;-66
2021/08/12 06:47:45;;;;;;;2.75;2.20;;;22.60;99.90;;;;;;5022110;28;20022;-66
2021/08/12 06:50:14;;;;;;;3.13;2.15;;;22.60;99.90;;;;;;5022934;28;20682;-68
2021/08/12 06:52:39;;;;;;;3.85;2.95;;;22.60;99.90;;;;;;5021274;28;20485;-66
2021/08/12 06:55:05;;;;;;;3.42;2.28;;;22.70;99.90;;;;;;5021645;28;20037;-68
2021/08/12 06:57:31;;;;;;;3.22;2.40;;;22.70;99.90;;;;;;5032060;28;20029;-66
2021/08/12 06:59:56;;;;;;;3.00;2.40;;;22.70;99.90;;;;;;5028371;28;20742;-66
2021/08/12 07:02:22;;;;;;;3.65;2.67;;;22.80;99.90;;;;;;5033020;28;20080;-65
2021/08/12 07:04:48;;;;;;;2.65;2.15;;;22.70;99.90;;;;;;5033234;28;20029;-67
2021/08/12 07:07:13;;;;;;;3.08;2.10;;;22.70;99.90;;;;;;5032530;28;20022;-68
2021/08/12 07:09:39;;;;;;;2.95;2.40;;;22.70;99.90;;;;;;5032660;28;20026;-67
2021/08/12 07:12:06;;;;;;;2.65;2.22;;;22.70;99.90;;;;;;5032165;28;20030;-65
2021/08/12 07:14:32;;;;;;;2.60;2.25;;;22.70;99.90;;;;;;5032712;28;20026;-66
2021/08/12 07:16:57;;;;;;;4.05;3.08;;;22.70;99.90;;;;;;5032952;28;20134;-68
2021/08/12 07:19:24;;;;;;;4.10;3.15;;;22.70;99.90;;;;;;5032255;28;20106;-66
2021/08/12 07:21:51;;;;;;;5.13;3.47;;;22.60;99.90;;;;;;5032409;28;20033;-66
2021/08/12 07:24:17;;;;;;;4.97;3.90;;;22.60;99.90;;;;;;5015506;28;20021;-67
2021/08/12 07:26:46;;;;;;;6.13;3.63;;;22.60;99.90;;;;;;5032724;28;20037;-68
2021/08/12 07:29:12;;;;;;;6.90;3.70;;;22.50;99.90;;;;;;5031941;28;20026;-68
2021/08/12 07:31:38;;;;;;;4.72;3.30;;;22.50;99.90;;;;;;5032341;28;20021;-66
2021/08/12 07:34:04;;;;;;;4.15;3.03;;;22.60;99.90;;;;;;5040318;28;20025;-67
2021/08/12 07:36:29;;;;;;;4.95;2.80;;;22.50;99.90;;;;;;5029221;28;20069;-69
2021/08/12 07:38:55;;;;;;;4.40;3.15;;;22.40;99.90;;;;;;5023047;28;20036;-67
2021/08/12 07:41:21;;;;;;;4.43;2.88;;;22.30;99.90;;;;;;5020738;28;20033;-67
2021/08/12 07:43:46;;;;;;;3.30;2.80;;;22.40;99.90;;;;;;5022421;28;20017;-69
2021/08/12 07:46:12;;;;;;;5.07;2.90;;;22.50;99.90;;;;;;5020463;28;20057;-69
2021/08/12 07:48:39;;;;;;;4.47;2.85;;;22.60;99.90;;;;;;5024927;28;20056;-70
2021/08/12 07:51:04;;;;;;;5.78;3.05;;;22.50;99.90;;;;;;5020846;28;20036;-75
2021/08/12 07:53:30;;;;;;;5.13;2.65;;;22.50;99.90;;;;;;5029628;28;20025;-70
2021/08/12 07:55:58;;;;;;;5.47;2.60;;;22.40;99.90;;;;;;5031127;28;20033;-69
2021/08/12 07:58:24;;;;;;;4.50;3.20;;;22.30;99.90;;;;;;5031774;28;20022;-67
2021/08/12 08:00:50;;;;;;;10.82;2.72;;;22.30;99.90;;;;;;5032392;28;20037;-69
2021/08/12 08:03:16;;;;;;;20.50;3.13;;;22.30;99.90;;;;;;5030830;28;20425;-67
2021/08/12 08:05:42;;;;;;;5.20;2.67;;;22.40;99.90;;;;;;5020845;28;20075;-67
2021/08/12 08:08:08;;;;;;;4.43;2.90;;;22.50;99.90;;;;;;5019638;28;20108;-67
2021/08/12 08:10:34;;;;;;;5.65;3.10;;;22.40;99.90;;;;;;5021697;28;20112;-66
2021/08/12 08:12:59;;;;;;;4.03;2.60;;;22.30;99.90;;;;;;5020140;28;20465;-67
2021/08/12 08:15:25;;;;;;;5.43;2.80;;;22.50;99.90;;;;;;5012285;28;20084;-67
2021/08/12 08:17:51;;;;;;;3.85;2.85;;;22.50;99.90;;;;;;5024186;28;20432;-66
2021/08/12 08:20:17;;;;;;;3.88;2.53;;;22.40;99.90;;;;;;5031942;28;20045;-67
2021/08/12 08:22:42;;;;;;;4.50;2.65;;;22.20;99.90;;;;;;5013449;28;20466;-66
2021/08/12 08:25:09;;;;;;;4.30;3.00;;;22.30;99.90;;;;;;5031787;28;20025;-67
2021/08/12 08:27:35;;;;;;;4.43;2.42;;;22.30;99.90;;;;;;5031692;28;20017;-66
2021/08/12 08:30:00;;;;;;;4.97;2.63;;;22.30;99.90;;;;;;5030593;28;20480;-67
2021/08/12 08:32:26;;;;;;;6.43;3.47;;;22.10;99.90;;;;;;5027620;28;20029;-66
2021/08/12 08:34:53;;;;;;;5.30;3.08;;;22.10;99.90;;;;;;5021363;28;20033;-66
2021/08/12 08:37:19;;;;;;;3.72;2.72;;;22.20;99.90;;;;;;5020594;28;20470;-67
2021/08/12 08:39:45;;;;;;;5.10;3.00;;;22.30;99.90;;;;;;5022535;28;20041;-67
2021/08/12 08:42:15;;;;;;;5.55;2.80;;;22.10;99.90;;;;;;5031138;28;20067;-66
2021/08/12 08:44:45;;;;;;;4.45;2.67;;;22.10;99.90;;;;;;5031673;28;20049;-66
2021/08/12 08:47:13;;;;;;;4.20;2.83;;;22.20;99.90;;;;;;5028278;28;20431;-67
2021/08/12 08:49:42;;;;;;;4.00;2.80;;;22.30;99.90;;;;;;5030392;28;20437;-66
2021/08/12 08:52:11;;;;;;;3.25;2.38;;;22.30;99.90;;;;;;5031333;28;20532;-67
2021/08/12 08:54:39;;;;;;;4.38;2.47;;;22.10;99.90;;;;;;5028017;28;20053;-65
2021/08/12 08:57:05;;;;;;;5.32;2.72;;;22.10;99.90;;;;;;5011436;28;20029;-66
2021/08/12 08:59:34;;;;;;;3.85;2.35;;;22.00;99.90;;;;;;5011625;28;20429;-67
2021/08/12 09:02:01;;;;;;;3.63;2.40;;;21.90;99.90;;;;;;5011347;28;20441;-67
2021/08/12 09:04:27;;;;;;;3.83;2.38;;;21.90;99.90;;;;;;5011639;28;20355;-67
2021/08/12 09:06:52;;;;;;;3.85;2.58;;;21.90;99.90;;;;;;5011405;28;20037;-68
2021/08/12 09:09:18;;;;;;;4.85;2.33;;;21.80;99.90;;;;;;5026856;28;20493;-71
2021/08/12 09:11:44;;;;;;;6.85;2.55;;;21.70;99.90;;;;;;5031167;28;20030;-69
2021/08/12 09:14:38;;;;;;;5.18;2.80;;;21.80;99.90;;;;;;5030777;28;20022;-70
2021/08/12 09:17:25;;;;;;;4.55;2.53;;;22.00;99.90;;;;;;5030940;28;20037;-66
2021/08/12 09:20:19;;;;;;;4.47;2.75;;;22.10;99.90;;;;;;5030744;28;20042;-67
2021/08/12 09:22:51;;;;;;;3.45;2.90;;;22.20;99.90;;;;;;5031193;28;20026;-72
2021/08/12 09:25:39;;;;;;;4.55;2.83;;;22.20;99.90;;;;;;5031138;28;20516;-70
2021/08/12 09:28:15;;;;;;;3.60;2.53;;;22.30;99.90;;;;;;5030987;28;20096;-70
2021/08/12 09:30:46;;;;;;;4.40;2.55;;;22.30;99.90;;;;;;5030965;28;20042;-70
2021/08/12 09:33:17;;;;;;;5.75;2.65;;;22.40;99.90;;;;;;5031039;28;20029;-70
2021/08/12 09:35:43;;;;;;;4.75;2.95;;;22.40;99.90;;;;;;5031171;28;20090;-70
2021/08/12 09:38:12;;;;;;;6.30;2.90;;;22.40;99.90;;;;;;5030854;28;20025;-69
2021/08/12 09:40:38;;;;;;;4.55;2.85;;;22.40;99.90;;;;;;5030829;28;20038;-71
2021/08/12 09:43:06;;;;;;;4.65;3.08;;;22.50;99.90;;;;;;5030795;28;20101;-69
2021/08/12 09:45:34;;;;;;;4.10;3.30;;;22.50;99.90;;;;;;5031019;28;20022;-73
2021/08/12 09:48:13;;;;;;;6.60;3.35;;;22.60;99.90;;;;;;5030550;28;20028;-71
2021/08/12 09:50:41;;;;;;;5.72;3.92;;;22.60;99.90;;;;;;5031108;28;20037;-68
2021/08/12 09:53:08;;;;;;;4.68;4.13;;;22.70;99.90;;;;;;5013158;28;20079;-71
2021/08/12 09:55:40;;;;;;;7.63;4.70;;;22.60;99.90;;;;;;5031021;28;20025;-71
2021/08/12 09:58:09;;;;;;;5.00;4.40;;;22.60;99.90;;;;;;5034199;28;20031;-69
2021/08/12 10:00:38;;;;;;;8.07;5.13;;;22.70;99.90;;;;;;5034428;28;20041;-70
2021/08/12 10:03:20;;;;;;;8.60;5.38;;;22.70;99.90;;;;;;5034024;28;20022;-71
2021/08/12 10:05:45;;;;;;;7.22;5.07;;;22.70;99.90;;;;;;5034439;28;20021;-71
2021/08/12 10:08:11;;;;;;;7.15;5.38;;;22.60;99.90;;;;;;5033996;28;20025;-69
2021/08/12 10:10:38;;;;;;;7.00;4.70;;;22.70;99.90;;;;;;5034288;28;20026;-70
2021/08/12 10:13:04;;;;;;;7.43;5.05;;;22.80;99.90;;;;;;5033877;28;20033;-71
2021/08/12 10:15:34;;;;;;;7.70;5.20;;;22.80;99.90;;;;;;5034151;28;20040;-71
2021/08/12 10:18:03;;;;;;;7.00;5.07;;;22.90;99.90;;;;;;5033867;28;20124;-70
2021/08/12 10:20:35;;;;;;;6.50;5.07;;;23.00;99.90;;;;;;5033965;28;20112;-72
2021/08/12 10:23:02;;;;;;;8.63;5.13;;;23.00;99.90;;;;;;5033866;28;20194;-70
2021/08/12 10:25:29;;;;;;;7.20;5.18;;;23.10;99.90;;;;;;5034045;28;20034;-72
2021/08/12 10:28:01;;;;;;;6.10;4.78;;;23.10;99.90;;;;;;5033695;28;20026;-72
2021/08/12 10:30:28;;;;;;;6.00;4.13;;;23.20;99.90;;;;;;5033549;28;20025;-72
2021/08/12 10:32:56;;;;;;;9.90;4.90;;;23.20;99.90;;;;;;5033606;28;20584;-72
2021/08/12 10:35:24;;;;;;;7.25;4.40;;;23.20;99.90;;;;;;5016225;28;20045;-72
2021/08/12 10:37:54;;;;;;;4.55;3.90;;;23.20;99.90;;;;;;5034043;28;20370;-72
2021/08/12 10:40:21;;;;;;;5.75;4.35;;;23.30;99.90;;;;;;5033769;28;20037;-72
2021/08/12 10:42:48;;;;;;;6.03;3.92;;;23.30;99.90;;;;;;5033702;28;20105;-72
2021/08/12 10:45:21;;;;;;;5.53;3.58;;;23.30;99.90;;;;;;5033321;28;20411;-71
2021/08/12 10:47:55;;;;;;;5.55;3.50;;;23.30;99.90;;;;;;5014214;28;20406;-72
2021/08/12 10:50:23;;;;;;;5.82;4.05;;;23.30;99.90;;;;;;5013992;28;20049;-68
2021/08/12 10:53:06;;;;;;;7.25;3.40;;;23.40;99.90;;;;;;5013687;28;20018;-72
2021/08/12 10:55:55;;;;;;;5.55;3.70;;;23.40;99.90;;;;;;5013416;28;20026;-72
2021/08/12 10:58:22;;;;;;;8.80;4.30;;;23.40;99.90;;;;;;5002970;28;20034;-68
2021/08/12 11:00:55;;;;;;;4.30;3.80;;;23.40;99.90;;;;;;5013884;28;20454;-70
2021/08/12 11:03:33;;;;;;;5.65;4.15;;;23.30;99.90;;;;;;5013704;28;20026;-71
2021/08/12 11:06:09;;;;;;;6.85;4.10;;;23.30;99.90;;;;;;5028629;28;20107;-72
2021/08/12 11:08:57;;;;;;;7.70;3.88;;;23.30;99.90;;;;;;5032035;28;20104;-71
2021/08/12 11:11:25;;;;;;;4.38;3.25;;;23.50;99.90;;;;;;5036084;28;20021;-71
2021/08/12 11:14:04;;;;;;;5.00;3.35;;;23.60;99.90;;;;;;5032639;28;20026;-70
2021/08/12 11:16:41;;;;;;;4.75;3.58;;;23.60;99.90;;;;;;5033225;28;20382;-75
2021/08/12 11:19:28;;;;;;;4.53;3.22;;;23.60;99.90;;;;;;5015041;28;20082;-70
2021/08/12 11:21:54;;;;;;;5.68;3.40;;;23.60;99.90;;;;;;5021321;28;20070;-70
2021/08/12 11:24:23;;;;;;;6.00;3.85;;;23.70;99.90;;;;;;5033207;28;20532;-68
2021/08/12 11:26:48;;;;;;;5.90;3.97;;;23.70;99.90;;;;;;5033293;28;20026;-67
2021/08/12 11:29:29;;;;;;;7.63;3.88;;;23.70;99.90;;;;;;5032810;28;20025;-67
2021/08/12 11:32:09;;;;;;;6.68;3.95;;;23.70;99.90;;;;;;5032593;28;20486;-69
2021/08/12 11:34:52;;;;;;;4.90;3.40;;;23.70;99.90;;;;;;5032654;28;20017;-68
2021/08/12 11:37:27;;;;;;;6.30;3.95;;;23.80;99.90;;;;;;5032831;28;20112;-69
2021/08/12 11:40:09;;;;;;;4.78;4.00;;;23.80;99.90;;;;;;5032403;28;20030;-67
2021/08/12 11:42:37;;;;;;;5.95;4.22;;;23.80;99.90;;;;;;5032527;28;20029;-69
2021/08/12 11:45:18;;;;;;;7.68;4.10;;;23.80;99.90;;;;;;5032482;28;20033;-70
2021/08/12 11:47:44;;;;;;;5.93;3.55;;;23.80;99.90;;;;;;5032445;28;20477;-70
2021/08/12 11:50:12;;;;;;;8.32;3.63;;;23.90;99.90;;;;;;5032045;28;20102;-71
2021/08/12 11:52:44;;;;;;;4.60;3.80;;;23.90;99.90;;;;;;5032417;28;20025;-70
2021/08/12 11:55:14;;;;;;;5.85;3.90;;;23.90;99.90;;;;;;5030628;28;20052;-70
2021/08/12 11:57:40;;;;;;;5.72;3.83;;;23.80;99.90;;;;;;5032003;28;20048;-70
2021/08/12 12:00:16;;;;;;;6.07;3.78;;;23.80;99.90;;;;;;5030701;28;20124;-69
2021/08/12 12:03:05;;;;;;;6.22;3.40;;;23.90;99.90;;;;;;5031694;28;20029;-69
2021/08/12 12:05:38;;;;;;;6.45;4.13;;;24.00;99.90;;;;;;5021725;28;20038;-69
2021/08/12 12:08:10;;;;;;;5.30;3.42;;;24.10;99.90;;;;;;5031968;28;20022;-68
2021/08/12 12:10:44;;;;;;;5.72;3.33;;;24.10;99.90;;;;;;5032038;28;20048;-67
2021/08/12 12:13:18;;;;;;;4.75;3.20;;;24.20;99.90;;;;;;5031933;28;20074;-72
2021/08/12 12:15:48;;;;;;;4.10;3.28;;;24.20;99.90;;;;;;5031562;28;20037;-73
2021/08/12 12:18:30;;;;;;;4.80;3.13;;;24.20;99.90;;;;;;5031669;28;20470;-73
2021/08/12 12:21:01;;;;;;;4.28;3.25;;;24.20;99.90;;;;;;5031416;28;20136;-69
2021/08/12 12:23:27;;;;;;;4.80;3.22;;;24.20;99.90;;;;;;5032074;28;20092;-69
2021/08/12 12:25:53;;;;;;;4.55;3.05;;;24.20;99.90;;;;;;5031618;28;20025;-66
2021/08/12 12:28:19;;;;;;;4.88;2.88;;;24.20;99.90;;;;;;5031960;28;20025;-69
2021/08/12 12:30:45;;;;;;;5.47;3.35;;;24.30;99.90;;;;;;5031612;28;20428;-71
2021/08/12 12:33:14;;;;;;;5.40;3.00;;;24.30;99.90;;;;;;5031446;28;20243;-68
2021/08/12 12:35:43;;;;;;;3.95;2.92;;;24.30;99.90;;;;;;5032492;28;20025;-68
2021/08/12 12:38:13;;;;;;;4.18;3.05;;;24.30;99.90;;;;;;5030686;28;20385;-68
2021/08/12 12:40:39;;;;;;;3.95;2.78;;;24.30;99.90;;;;;;5030433;28;20038;-68
2021/08/12 12:43:05;;;;;;;3.88;2.83;;;24.30;99.90;;;;;;5030439;28;20049;-69
2021/08/12 12:45:51;;;;;;;3.92;2.90;;;24.30;99.90;;;;;;5030555;28;20041;-68
2021/08/12 12:48:26;;;;;;;5.47;3.28;;;24.30;99.90;;;;;;5030837;28;20541;-68
2021/08/12 12:50:51;;;;;;;5.20;2.92;;;24.30;99.90;;;;;;5030301;28;20032;-68
2021/08/12 12:53:34;;;;;;;4.00;3.10;;;24.40;99.90;;;;;;5030900;28;20381;-68
2021/08/12 12:56:01;;;;;;;3.72;2.92;;;24.40;99.90;;;;;;5030298;28;20489;-70